This is the latest recevied weather packets stored in our database for station/object WX7FGZ-7. If no packets are shown the sender has not sent any weather packets the latest 10 day(s).
| Time | Temp. | Humidity | Pressure | Rain* | Wind** | Luminosity | Snow |
|---|---|---|---|---|---|---|---|
| 1777853713 | 22.78° C | 35% | 1013.1 hPa | 0 mm | - | - | - |
| 1777853681 | 23.33° C | 34% | 1013.1 hPa | 0 mm | - | - | - |
| 1777853413 | 23.33° C | 34% | 1013.1 hPa | 0 mm | - | - | - |
| 1777853124 | 22.78° C | 35% | 1013.2 hPa | 0 mm | - | - | - |
| 1777852813 | 22.78° C | 36% | 1013.3 hPa | 0 mm | - | - | - |
| 1777852513 | 23.33° C | 35% | 1013.4 hPa | 0 mm | - | - | - |
| 1777852217 | 23.33° C | 36% | 1013.4 hPa | 0 mm | - | - | - |
| 1777851929 | 22.78° C | 39% | 1013.5 hPa | 0 mm | - | - | - |
| 1777851913 | 22.78° C | 36% | 1013.5 hPa | 0 mm | - | - | - |
| 1777851653 | 22.78° C | 39% | 1013.5 hPa | 0 mm | - | - | - |
| 1777851621 | 22.78° C | 39% | 1013.5 hPa | 0 mm | - | - | - |
| 1777851354 | 22.22° C | 37% | 1013.5 hPa | 0 mm | - | - | - |
| 1777851313 | 22.22° C | 37% | 1013.5 hPa | 0 mm | - | - | - |
| 1777851228 | 21.67° C | 41% | 1013.5 hPa | 0 mm | - | - | - |
| 1777851044 | 21.67° C | 41% | 1013.5 hPa | 0 mm | - | - | - |
| 1777850713 | 21.67° C | 39% | 1013.7 hPa | 0.25 mm | - | - | - |
| 1777850415 | 21.11° C | 41% | 1013.8 hPa | 0.25 mm | - | - | - |
| 1777849813 | 20° C | 44% | 1014.2 hPa | 0.51 mm | - | - | - |
| 1777849213 | 19.44° C | 47% | 1014.3 hPa | 0.51 mm | - | - | - |
| 1777848913 | 19.44° C | 46% | 1014.3 hPa | 0.51 mm | - | - | - |
| 1777848615 | 18.89° C | 50% | 1014.6 hPa | 0.51 mm | - | - | - |
| 1777848319 | 18.33° C | 54% | 1014.6 hPa | 0.51 mm | - | - | - |
| 1777848013 | 17.78° C | 56% | 1015 hPa | 0.51 mm | - | - | - |
| 1777847629 | 17.22° C | 61% | 1015.5 hPa | 0.51 mm | - | - | - |
| 1777847413 | 17.22° C | 61% | 1015.5 hPa | 0.51 mm | - | - | - |
* Rain latest hour (hover to see other rain measurements)
** Current wind speed in m/s (hover to see current wind gust speed)